createdAt,value
2022-09-21T00:00:49.192Z,8.65
2022-09-21T00:03:17.589Z,8.02
2022-09-21T00:05:46.248Z,7.65
2022-09-21T00:08:15.103Z,13.05
2022-09-21T00:10:42.839Z,13.18
2022-09-21T00:13:13.377Z,12.48
2022-09-21T00:15:41.841Z,13.00
2022-09-21T00:18:11.192Z,12.90
2022-09-21T00:20:43.468Z,13.32
2022-09-21T00:23:11.420Z,12.82
2022-09-21T00:25:39.441Z,13.43
2022-09-21T00:28:07.152Z,13.13
2022-09-21T00:30:36.460Z,8.98
2022-09-21T00:33:04.316Z,10.75
2022-09-21T00:35:32.111Z,11.40
2022-09-21T00:38:02.029Z,10.20
2022-09-21T00:40:30.667Z,9.25
2022-09-21T00:43:12.780Z,7.60
2022-09-21T00:45:42.810Z,7.85
2022-09-21T00:48:10.887Z,9.63
2022-09-21T00:50:41.958Z,7.40
2022-09-21T00:53:09.941Z,7.80
2022-09-21T00:55:42.885Z,9.35
2022-09-21T00:58:16.320Z,7.13
2022-09-21T01:00:45.515Z,8.50
2022-09-21T01:03:14.353Z,7.70
2022-09-21T01:05:42.046Z,8.40
2022-09-21T01:08:12.975Z,8.05
2022-09-21T01:11:04.907Z,10.65
2022-09-21T01:13:43.296Z,7.07
2022-09-21T01:16:16.343Z,7.35
2022-09-21T01:18:51.609Z,12.82
2022-09-21T01:21:22.490Z,11.65
2022-09-21T01:24:19.584Z,12.65
2022-09-21T01:27:19.217Z,10.32
2022-09-21T01:29:54.254Z,11.38
2022-09-21T01:32:26.872Z,8.95
2022-09-21T01:35:00.720Z,9.35
2022-09-21T01:37:33.997Z,9.20
2022-09-21T01:40:05.756Z,9.32
2022-09-21T01:42:35.623Z,10.07
2022-09-21T01:45:08.813Z,9.20
2022-09-21T01:47:38.642Z,10.40
2022-09-21T01:50:10.536Z,8.98
2022-09-21T01:52:43.300Z,12.20
2022-09-21T01:55:16.277Z,10.35
2022-09-21T01:57:50.957Z,11.38
2022-09-21T02:00:20.284Z,7.13
2022-09-21T02:02:52.112Z,9.00
2022-09-21T02:05:23.531Z,8.60
2022-09-21T02:07:53.672Z,9.18
2022-09-21T02:10:25.303Z,11.52
2022-09-21T02:12:56.782Z,14.07
2022-09-21T02:15:31.031Z,9.93
2022-09-21T02:18:06.655Z,9.02
2022-09-21T02:20:39.304Z,10.80
2022-09-21T02:23:17.787Z,7.68
2022-09-21T02:25:53.376Z,7.18
2022-09-21T02:28:31.378Z,11.10
2022-09-21T02:31:08.905Z,8.95
2022-09-21T02:33:46.809Z,9.10
2022-09-21T02:36:23.264Z,7.90
2022-09-21T02:38:54.540Z,9.43
2022-09-21T02:41:29.143Z,14.18
2022-09-21T02:44:02.711Z,10.73
2022-09-21T02:46:38.929Z,10.45
2022-09-21T02:49:10.960Z,9.82
2022-09-21T02:51:44.219Z,8.82
2022-09-21T02:54:16.715Z,8.73
2022-09-21T02:56:48.673Z,9.00
2022-09-21T02:59:17.546Z,17.05
2022-09-21T03:01:46.990Z,17.00
2022-09-21T03:04:14.760Z,13.02
2022-09-21T03:06:42.453Z,16.10
2022-09-21T03:09:10.609Z,14.73
2022-09-21T03:11:38.979Z,13.00
2022-09-21T03:14:08.756Z,11.07
2022-09-21T03:16:36.707Z,11.13
2022-09-21T03:19:06.619Z,10.73
2022-09-21T03:21:34.328Z,10.95
2022-09-21T03:24:02.471Z,15.63
2022-09-21T03:26:30.200Z,19.08
2022-09-21T03:28:57.992Z,21.50
2022-09-21T03:31:25.797Z,20.50
2022-09-21T03:33:53.889Z,24.23
2022-09-21T03:36:22.985Z,39.45
2022-09-21T03:38:50.683Z,25.92
2022-09-21T03:41:18.832Z,23.50
2022-09-21T03:43:46.568Z,31.33
2022-09-21T03:46:14.328Z,21.55
2022-09-21T03:48:42.438Z,30.90
2022-09-21T03:51:10.572Z,29.63
2022-09-21T03:53:39.672Z,13.65
2022-09-21T03:56:07.432Z,23.60
2022-09-21T03:58:35.197Z,33.50
2022-09-21T04:01:03.803Z,20.95
2022-09-21T04:03:31.707Z,24.60
2022-09-21T04:05:59.429Z,14.55
2022-09-21T04:08:27.536Z,13.20
2022-09-21T04:10:56.726Z,16.17
2022-09-21T04:13:24.965Z,21.52
2022-09-21T04:15:52.880Z,38.25
2022-09-21T04:18:20.653Z,22.10
2022-09-21T04:20:48.571Z,17.33
2022-09-21T04:23:16.291Z,13.25
2022-09-21T04:25:45.033Z,11.85
2022-09-21T04:28:14.064Z,20.65
2022-09-21T04:30:41.855Z,25.30
2022-09-21T04:33:09.774Z,19.85
2022-09-21T04:35:37.519Z,19.08
2022-09-21T04:38:05.321Z,13.02
2022-09-21T04:40:33.078Z,12.70
2022-09-21T04:43:00.914Z,14.48
2022-09-21T04:45:29.952Z,9.63
2022-09-21T04:47:57.997Z,14.90
2022-09-21T04:50:25.913Z,21.17
2022-09-21T04:53:04.374Z,21.00
2022-09-21T04:55:32.127Z,23.05
2022-09-21T04:57:59.837Z,14.82
2022-09-21T05:00:28.203Z,37.53
2022-09-21T05:02:58.235Z,23.92
2022-09-21T05:05:26.151Z,15.18
2022-09-21T05:07:54.192Z,10.93
2022-09-21T05:10:21.097Z,14.75
2022-09-21T05:12:48.896Z,14.73
2022-09-21T05:15:17.080Z,18.58
2022-09-21T05:17:44.899Z,10.88
2022-09-21T05:20:14.472Z,12.93
2022-09-21T05:22:42.187Z,14.00
2022-09-21T05:25:10.861Z,11.27
2022-09-21T05:27:38.736Z,18.48
2022-09-21T05:30:07.959Z,22.98
2022-09-21T05:32:45.122Z,18.50
2022-09-21T05:35:25.035Z,13.57
2022-09-21T05:37:58.267Z,15.23
2022-09-21T05:40:26.919Z,13.02
2022-09-21T05:42:56.162Z,16.10
2022-09-21T05:45:24.511Z,12.95
2022-09-21T05:47:59.496Z,18.30
2022-09-21T05:50:47.425Z,12.63
2022-09-21T05:53:30.956Z,49.47
2022-09-21T05:56:00.876Z,61.33
2022-09-21T05:58:37.984Z,33.67
2022-09-21T06:01:21.770Z,21.17
2022-09-21T06:03:50.156Z,13.77
2022-09-21T06:06:20.822Z,31.48
2022-09-21T06:08:48.749Z,25.75
2022-09-21T06:11:16.757Z,27.42
2022-09-21T06:13:44.461Z,27.27
2022-09-21T06:16:12.306Z,17.50
2022-09-21T06:18:40.425Z,23.67
2022-09-21T06:21:09.475Z,33.30
2022-09-21T06:23:38.893Z,21.00
2022-09-21T06:26:07.045Z,22.10
2022-09-21T06:28:34.822Z,16.52
2022-09-21T06:31:02.585Z,22.30
2022-09-21T06:33:30.344Z,17.92
2022-09-21T06:35:59.436Z,17.70
2022-09-21T06:38:29.210Z,16.58
2022-09-21T06:41:03.717Z,16.10
2022-09-21T06:43:32.125Z,17.63
2022-09-21T06:46:01.581Z,16.55
2022-09-21T06:48:30.833Z,14.80
2022-09-21T06:50:59.622Z,18.90
2022-09-21T06:53:28.273Z,15.45
2022-09-21T06:56:00.949Z,18.35
2022-09-21T06:58:31.208Z,17.55
2022-09-21T07:00:59.153Z,14.25
2022-09-21T07:03:27.113Z,17.60
2022-09-21T07:05:54.824Z,22.55
2022-09-21T07:11:11.573Z,17.92
2022-09-21T07:13:40.909Z,19.05
2022-09-21T07:16:10.001Z,14.38
2022-09-21T07:18:43.529Z,15.38
2022-09-21T07:21:13.082Z,16.13
2022-09-21T07:23:40.978Z,19.42
2022-09-21T07:26:11.626Z,28.38
2022-09-21T07:28:41.092Z,36.40
2022-09-21T07:31:10.155Z,33.70
2022-09-21T07:33:38.103Z,16.98
2022-09-21T07:36:10.433Z,14.68
2022-09-21T07:38:40.366Z,14.27
2022-09-21T07:41:08.579Z,13.02
2022-09-21T07:43:39.209Z,13.38
2022-09-21T07:46:09.257Z,10.50
2022-09-21T07:48:37.247Z,14.10
2022-09-21T07:51:06.692Z,11.00
2022-09-21T07:53:34.495Z,10.63
2022-09-21T07:56:03.436Z,10.13
2022-09-21T07:58:48.999Z,9.57
2022-09-21T08:01:18.544Z,9.90
2022-09-21T08:03:46.364Z,9.98
2022-09-21T08:06:14.278Z,10.75
2022-09-21T08:08:42.337Z,10.60
2022-09-21T08:11:11.795Z,9.88
2022-09-21T08:13:39.778Z,7.95
2022-09-21T08:16:07.990Z,9.48
2022-09-21T08:18:40.303Z,9.65
2022-09-21T08:21:12.129Z,8.48
2022-09-21T08:23:42.784Z,12.60
2022-09-21T08:26:18.578Z,9.52
2022-09-21T08:31:19.470Z,9.45
2022-09-21T08:33:49.684Z,8.88
2022-09-21T08:36:18.236Z,8.25
2022-09-21T08:38:46.448Z,9.23
2022-09-21T08:41:19.851Z,7.93
2022-09-21T08:43:52.850Z,11.27
2022-09-21T08:46:24.656Z,9.85
2022-09-21T08:48:59.432Z,7.28
2022-09-21T08:51:31.248Z,7.68
2022-09-21T08:54:02.247Z,8.93
2022-09-21T08:56:53.285Z,8.18
2022-09-21T08:59:17.713Z,8.32
2022-09-21T09:01:58.329Z,9.48
2022-09-21T09:04:46.835Z,6.32
2022-09-21T09:07:32.123Z,7.20
2022-09-21T09:10:11.756Z,6.32
2022-09-21T09:12:53.964Z,8.75
2022-09-21T09:15:38.024Z,4.55
2022-09-21T09:18:10.842Z,4.82
2022-09-21T09:20:44.440Z,8.68
2022-09-21T09:23:16.834Z,4.38
2022-09-21T09:25:48.324Z,4.53
2022-09-21T09:28:25.751Z,5.78
2022-09-21T09:31:00.182Z,5.43
2022-09-21T09:33:33.817Z,6.38
2022-09-21T09:36:05.618Z,7.45
2022-09-21T09:38:38.446Z,6.45
2022-09-21T09:41:35.222Z,4.40
2022-09-21T09:44:22.004Z,6.78
2022-09-21T09:47:01.184Z,7.63
2022-09-21T09:49:39.583Z,3.58
2022-09-21T09:52:12.057Z,4.15
2022-09-21T09:54:39.943Z,5.78
2022-09-21T09:57:10.821Z,6.30
2022-09-21T09:59:44.747Z,5.38
2022-09-21T10:02:23.010Z,4.40
2022-09-21T10:05:01.475Z,5.63
2022-09-21T10:07:38.300Z,6.38
2022-09-21T10:10:34.522Z,7.28
2022-09-21T10:13:14.398Z,6.15
2022-09-21T10:15:46.513Z,3.83
2022-09-21T10:18:22.020Z,3.92
2022-09-21T10:20:56.788Z,4.15
2022-09-21T10:23:26.452Z,3.50
2022-09-21T10:25:57.571Z,4.40
2022-09-21T10:28:26.085Z,4.25
2022-09-21T10:31:10.021Z,4.10
2022-09-21T10:33:49.900Z,5.47
2022-09-21T10:36:30.111Z,2.22
2022-09-21T10:39:12.027Z,4.40
2022-09-21T10:41:39.977Z,2.70
2022-09-21T10:44:18.027Z,2.42
2022-09-21T10:46:46.952Z,2.63
2022-09-21T10:49:21.396Z,2.63
2022-09-21T10:51:51.779Z,2.60
2022-09-21T10:54:25.001Z,2.70
2022-09-21T10:56:55.457Z,2.53
2022-09-21T10:59:26.596Z,5.10
2022-09-21T11:01:56.980Z,3.45
2022-09-21T11:04:33.842Z,3.95
2022-09-21T11:07:06.270Z,2.25
2022-09-21T11:09:39.336Z,3.08
2022-09-21T11:12:26.140Z,3.22
2022-09-21T11:15:01.923Z,1.92
2022-09-21T11:17:37.559Z,3.97
2022-09-21T11:20:17.404Z,2.90
2022-09-21T11:22:57.429Z,2.20
2022-09-21T11:25:42.177Z,1.85
2022-09-21T11:28:15.869Z,3.00
2022-09-21T11:31:06.858Z,2.15
2022-09-21T11:33:52.855Z,4.10
2022-09-21T11:36:27.639Z,3.78
2022-09-21T11:39:02.260Z,2.08
2022-09-21T11:44:21.301Z,2.58
2022-09-21T11:46:55.600Z,3.42
2022-09-21T11:49:46.277Z,2.55
2022-09-21T11:52:32.884Z,2.72
2022-09-21T11:55:59.013Z,9.13
2022-09-21T11:58:39.692Z,3.72
2022-09-21T12:01:13.349Z,4.35
2022-09-21T12:03:51.539Z,2.25
2022-09-21T12:06:33.364Z,4.50
2022-09-21T12:09:21.099Z,2.17
2022-09-21T12:11:56.473Z,3.67
2022-09-21T12:14:34.792Z,3.58
2022-09-21T12:17:09.048Z,3.90
2022-09-21T12:19:46.433Z,3.55
2022-09-21T12:22:19.906Z,1.63
2022-09-21T12:24:51.805Z,2.58
2022-09-21T12:27:28.686Z,2.53
2022-09-21T12:30:03.362Z,1.77
2022-09-21T12:32:47.253Z,3.08
2022-09-21T12:35:18.174Z,1.88
2022-09-21T12:37:50.889Z,3.42
2022-09-21T12:40:27.735Z,3.85
2022-09-21T12:43:04.171Z,2.63
2022-09-21T12:45:37.331Z,2.30
2022-09-21T12:48:12.348Z,3.40
2022-09-21T12:50:44.742Z,2.90
2022-09-21T12:53:18.830Z,6.35
2022-09-21T12:55:54.106Z,3.38
2022-09-21T12:58:35.093Z,3.20
2022-09-21T13:01:17.322Z,2.55
2022-09-21T13:03:56.031Z,2.17
2022-09-21T13:06:50.438Z,2.70
2022-09-21T13:09:21.048Z,3.35
2022-09-21T13:11:56.542Z,3.15
2022-09-21T13:14:26.220Z,3.15
2022-09-21T13:17:02.836Z,3.47
2022-09-21T13:19:33.467Z,2.15
2022-09-21T13:22:24.581Z,3.90
2022-09-21T13:25:02.939Z,1.67
2022-09-21T13:28:01.697Z,2.05
2022-09-21T13:30:32.921Z,3.30
2022-09-21T13:33:04.152Z,2.70
2022-09-21T13:36:02.022Z,0.47
2022-09-21T13:38:34.225Z,2.22
2022-09-21T13:41:03.655Z,2.40
2022-09-21T13:43:48.078Z,2.35
2022-09-21T13:49:07.037Z,1.67
2022-09-21T13:51:35.584Z,2.50
2022-09-21T13:54:04.738Z,3.03
2022-09-21T13:56:33.431Z,1.98
2022-09-21T13:59:01.291Z,3.60
2022-09-21T14:01:49.955Z,1.90
2022-09-21T14:04:23.724Z,2.72
2022-09-21T14:06:53.372Z,4.93
2022-09-21T14:09:25.746Z,3.03
2022-09-21T14:11:59.792Z,1.67
2022-09-21T14:14:31.509Z,1.13
2022-09-21T14:17:00.620Z,5.07
2022-09-21T14:20:08.198Z,1.10
2022-09-21T14:22:42.383Z,1.80
2022-09-21T14:25:32.282Z,1.33
2022-09-21T14:28:04.430Z,1.27
2022-09-21T14:30:35.771Z,4.63
2022-09-21T14:33:23.540Z,4.05
2022-09-21T14:35:52.425Z,2.72
2022-09-21T14:38:25.573Z,2.00
2022-09-21T14:40:57.476Z,3.45
2022-09-21T14:43:28.923Z,2.58
2022-09-21T14:46:37.224Z,0.98
2022-09-21T14:49:21.092Z,1.60
2022-09-21T14:52:04.222Z,2.42
2022-09-21T14:54:51.069Z,1.90
2022-09-21T14:57:51.068Z,2.15
2022-09-21T15:00:23.280Z,1.45
2022-09-21T15:03:06.263Z,1.00
2022-09-21T15:05:38.617Z,0.63
2022-09-21T15:08:45.784Z,1.10
2022-09-21T15:11:24.785Z,0.80
2022-09-21T15:14:07.600Z,1.95
2022-09-21T15:16:41.595Z,0.88
2022-09-21T15:19:21.696Z,2.78
2022-09-21T15:21:51.166Z,2.42
2022-09-21T15:24:22.598Z,1.38
2022-09-21T15:26:53.842Z,2.20
2022-09-21T15:29:26.121Z,1.60
2022-09-21T15:31:54.605Z,4.22
2022-09-21T15:34:23.999Z,2.28
2022-09-21T15:36:52.767Z,2.97
2022-09-21T15:39:26.729Z,1.48
2022-09-21T15:42:18.433Z,1.65
2022-09-21T15:44:48.577Z,0.80
2022-09-21T15:47:19.891Z,1.42
2022-09-21T15:49:47.976Z,3.75
2022-09-21T15:52:25.547Z,0.70
2022-09-21T15:54:57.050Z,3.28
2022-09-21T15:57:36.429Z,2.15
2022-09-21T16:00:18.161Z,2.85
2022-09-21T16:03:04.326Z,1.75
2022-09-21T16:05:34.940Z,2.38
2022-09-21T16:08:07.907Z,3.40
2022-09-21T16:10:41.020Z,2.90
2022-09-21T16:13:36.602Z,1.70
2022-09-21T16:16:06.173Z,5.55
2022-09-21T16:18:43.011Z,4.30
2022-09-21T16:21:20.264Z,4.07
2022-09-21T16:23:49.145Z,1.25
2022-09-21T16:26:21.618Z,2.83
2022-09-21T16:28:58.216Z,2.63
2022-09-21T16:31:32.152Z,2.85
2022-09-21T16:34:32.951Z,3.90
2022-09-21T16:37:02.218Z,3.85
2022-09-21T16:39:30.081Z,1.30
2022-09-21T16:42:02.251Z,3.88
2022-09-21T16:44:40.220Z,2.70
2022-09-21T16:47:14.392Z,3.88
2022-09-21T16:49:42.645Z,5.45
2022-09-21T16:52:11.192Z,2.05
2022-09-21T16:54:38.989Z,1.38
2022-09-21T16:57:07.432Z,2.88
2022-09-21T16:59:36.548Z,2.85
2022-09-21T17:02:05.905Z,2.83
2022-09-21T17:04:35.069Z,5.20
2022-09-21T17:07:04.968Z,4.05
2022-09-21T17:09:35.359Z,1.90
2022-09-21T17:12:04.360Z,1.90
2022-09-21T17:14:35.404Z,5.07
2022-09-21T17:17:08.584Z,4.07
2022-09-21T17:19:36.795Z,2.30
2022-09-21T17:22:06.760Z,5.38
2022-09-21T17:24:49.897Z,2.67
2022-09-21T17:27:19.298Z,3.33
2022-09-21T17:29:49.494Z,3.88
2022-09-21T17:32:21.403Z,1.95
2022-09-21T17:34:56.150Z,4.80
2022-09-21T17:37:24.136Z,3.00
2022-09-21T17:39:53.502Z,5.05
2022-09-21T17:42:24.901Z,2.15
2022-09-21T17:45:02.281Z,3.80
2022-09-21T17:47:33.839Z,6.35
2022-09-21T17:50:09.614Z,4.53
2022-09-21T17:52:55.309Z,3.88
2022-09-21T17:55:23.613Z,3.17
2022-09-21T17:58:00.715Z,2.88
2022-09-21T18:00:37.116Z,2.70
2022-09-21T18:03:20.717Z,4.38
2022-09-21T18:05:50.627Z,5.78
2022-09-21T18:08:19.121Z,7.95
2022-09-21T18:11:01.844Z,8.85
2022-09-21T18:13:39.120Z,8.75
2022-09-21T18:16:21.795Z,8.32
2022-09-21T18:19:00.651Z,5.63
2022-09-21T18:21:28.968Z,5.63
2022-09-21T18:24:11.849Z,7.72
2022-09-21T18:26:40.268Z,5.75
2022-09-21T18:29:37.988Z,7.28
2022-09-21T18:32:19.772Z,5.75
2022-09-21T18:35:24.772Z,5.93
2022-09-21T18:38:03.750Z,4.72
2022-09-21T18:40:39.833Z,5.60
2022-09-21T18:43:22.561Z,7.07
2022-09-21T18:45:56.660Z,8.45
2022-09-21T18:48:51.596Z,14.27
2022-09-21T18:53:55.758Z,11.65
2022-09-21T18:56:24.856Z,10.38
2022-09-21T18:58:53.398Z,13.07
2022-09-21T19:01:22.699Z,13.38
2022-09-21T19:03:51.220Z,12.75
2022-09-21T19:06:36.980Z,8.25
2022-09-21T19:09:37.903Z,9.25
2022-09-21T19:12:21.602Z,8.48
2022-09-21T19:15:06.888Z,12.30
2022-09-21T19:17:58.816Z,7.50
2022-09-21T19:20:41.677Z,8.77
2022-09-21T19:23:25.179Z,8.38
2022-09-21T19:25:57.895Z,11.48
2022-09-21T19:28:50.173Z,12.05
2022-09-21T19:31:19.859Z,8.10
2022-09-21T19:33:50.866Z,6.85
2022-09-21T19:36:20.913Z,8.07
2022-09-21T19:38:50.662Z,6.70
2022-09-21T19:41:36.003Z,5.00
2022-09-21T19:46:44.199Z,5.03
2022-09-21T19:49:18.298Z,7.43
2022-09-21T19:51:48.918Z,5.07
2022-09-21T19:54:38.118Z,7.15
2022-09-21T19:57:31.793Z,6.93
2022-09-21T20:00:00.898Z,6.95
2022-09-21T20:02:32.496Z,7.20
2022-09-21T20:05:06.388Z,9.85
2022-09-21T20:07:44.382Z,7.60
2022-09-21T20:10:45.352Z,7.43
2022-09-21T20:13:21.882Z,4.72
2022-09-21T20:15:53.015Z,7.45
2022-09-21T20:18:31.992Z,5.95
2022-09-21T20:21:00.499Z,11.95
2022-09-21T20:23:30.127Z,9.90
2022-09-21T20:26:04.520Z,11.80
2022-09-21T20:28:32.902Z,9.73
2022-09-21T20:31:00.898Z,10.13
2022-09-21T20:33:31.859Z,10.95
2022-09-21T20:36:00.046Z,14.00
2022-09-21T20:38:27.897Z,16.83
2022-09-21T20:40:55.644Z,18.45
2022-09-21T20:43:29.026Z,15.45
2022-09-21T20:46:00.076Z,12.30
2022-09-21T20:48:27.928Z,14.77
2022-09-21T20:50:56.843Z,12.57
2022-09-21T20:53:25.386Z,12.52
2022-09-21T20:55:55.496Z,12.32
2022-09-21T20:58:25.510Z,10.00
2022-09-21T21:00:58.623Z,9.40
2022-09-21T21:03:26.879Z,14.27
2022-09-21T21:05:54.605Z,12.43
2022-09-21T21:08:22.448Z,14.57
2022-09-21T21:10:50.141Z,11.13
2022-09-21T21:13:17.866Z,10.85
2022-09-21T21:15:46.940Z,13.68
2022-09-21T21:18:14.662Z,9.65
2022-09-21T21:20:42.391Z,10.00
2022-09-21T21:23:10.121Z,9.90
2022-09-21T21:25:37.988Z,11.55
2022-09-21T21:28:06.043Z,7.65
2022-09-21T21:30:33.822Z,7.22
2022-09-21T21:33:04.102Z,9.18
2022-09-21T21:35:32.099Z,12.32
2022-09-21T21:37:59.887Z,13.13
2022-09-21T21:40:27.612Z,11.07
2022-09-21T21:42:56.597Z,7.10
2022-09-21T21:45:24.568Z,10.65
2022-09-21T21:47:52.489Z,7.15
2022-09-21T21:50:21.575Z,12.65
2022-09-21T21:52:49.269Z,8.23
2022-09-21T21:55:17.027Z,10.38
2022-09-21T21:57:44.713Z,8.10
2022-09-21T22:00:13.951Z,8.68
2022-09-21T22:02:41.889Z,7.53
2022-09-21T22:05:10.374Z,5.82
2022-09-21T22:07:40.645Z,8.63
2022-09-21T22:10:09.838Z,7.78
2022-09-21T22:12:37.676Z,7.95
2022-09-21T22:15:06.111Z,7.40
2022-09-21T22:17:33.778Z,5.80
2022-09-21T22:20:01.756Z,7.22
2022-09-21T22:22:29.480Z,8.23
2022-09-21T22:24:58.590Z,7.13
2022-09-21T22:27:26.349Z,5.45
2022-09-21T22:29:54.048Z,11.52
2022-09-21T22:32:22.024Z,6.07
2022-09-21T22:34:51.023Z,8.43
2022-09-21T22:37:18.749Z,5.90
2022-09-21T22:39:46.543Z,5.43
2022-09-21T22:42:15.615Z,6.22
2022-09-21T22:44:43.301Z,7.15
2022-09-21T22:47:11.013Z,8.10
2022-09-21T22:49:38.788Z,7.03
2022-09-21T22:52:07.196Z,6.35
2022-09-21T22:54:34.944Z,9.10
2022-09-21T22:57:02.842Z,9.05
2022-09-21T22:59:31.900Z,6.05
2022-09-21T23:01:59.629Z,7.88
2022-09-21T23:04:27.416Z,6.55
2022-09-21T23:06:55.141Z,7.38
2022-09-21T23:09:23.325Z,8.00
2022-09-21T23:11:53.828Z,5.57
2022-09-21T23:14:22.708Z,8.35
2022-09-21T23:16:52.858Z,8.50
2022-09-21T23:19:20.824Z,8.27
2022-09-21T23:21:50.617Z,8.00
2022-09-21T23:24:18.883Z,6.13
2022-09-21T23:26:47.135Z,8.50
2022-09-21T23:29:16.520Z,6.90
2022-09-21T23:31:46.042Z,6.90
2022-09-21T23:34:16.272Z,7.78
2022-09-21T23:36:45.619Z,7.03
2022-09-21T23:39:14.933Z,8.00
2022-09-21T23:41:43.472Z,5.85
2022-09-21T23:44:11.250Z,9.73
2022-09-21T23:46:40.484Z,8.57
2022-09-21T23:49:08.411Z,7.00
2022-09-21T23:51:38.017Z,5.85
2022-09-21T23:54:06.770Z,4.93
2022-09-21T23:56:34.873Z,6.43
2022-09-21T23:59:03.402Z,6.40
